createdAt,value
2019-03-30T00:02:12.469Z,79.30
2019-03-30T00:04:41.928Z,79.30
2019-03-30T00:07:10.869Z,79.40
2019-03-30T00:09:39.420Z,79.60
2019-03-30T00:12:08.724Z,79.70
2019-03-30T00:14:37.302Z,79.60
2019-03-30T00:17:05.850Z,79.70
2019-03-30T00:19:35.256Z,79.60
2019-03-30T00:22:04.471Z,79.70
2019-03-30T00:24:33.020Z,79.80
2019-03-30T00:27:01.484Z,79.80
2019-03-30T00:29:29.980Z,79.90
2019-03-30T00:31:58.519Z,80.00
2019-03-30T00:34:27.005Z,79.70
2019-03-30T00:36:55.586Z,79.70
2019-03-30T00:39:24.143Z,79.60
2019-03-30T00:41:52.681Z,79.60
2019-03-30T00:44:21.268Z,79.50
2019-03-30T00:46:49.827Z,79.30
2019-03-30T00:49:18.372Z,79.10
2019-03-30T00:51:47.202Z,79.00
2019-03-30T00:54:15.787Z,79.00
2019-03-30T00:56:45.118Z,79.00
2019-03-30T00:59:13.696Z,78.90
2019-03-30T01:01:42.254Z,79.00
2019-03-30T01:04:10.795Z,79.00
2019-03-30T01:06:39.408Z,79.00
2019-03-30T01:09:08.621Z,79.10
2019-03-30T01:11:37.092Z,79.00
2019-03-30T01:14:05.661Z,79.10
2019-03-30T01:16:34.208Z,79.10
2019-03-30T01:19:02.759Z,79.00
2019-03-30T01:21:31.334Z,79.00
2019-03-30T01:23:59.808Z,79.10
2019-03-30T01:26:28.358Z,79.10
2019-03-30T01:28:57.198Z,79.20
2019-03-30T01:31:25.742Z,79.20
2019-03-30T01:33:54.280Z,79.30
2019-03-30T01:36:24.259Z,79.30
2019-03-30T01:38:52.799Z,79.50
2019-03-30T01:41:21.341Z,79.30
2019-03-30T01:43:49.847Z,79.20
2019-03-30T01:46:18.311Z,79.30
2019-03-30T01:48:47.173Z,79.00
2019-03-30T01:51:16.633Z,79.00
2019-03-30T01:53:45.172Z,79.00
2019-03-30T01:56:13.659Z,78.80
2019-03-30T01:58:42.240Z,78.80
2019-03-30T02:01:10.749Z,78.70
2019-03-30T02:03:39.298Z,78.70
2019-03-30T02:06:08.563Z,78.80
2019-03-30T02:08:37.095Z,78.70
2019-03-30T02:11:07.214Z,79.00
2019-03-30T02:13:35.798Z,78.70
2019-03-30T02:16:04.638Z,78.60
2019-03-30T02:18:33.172Z,78.50
2019-03-30T02:21:01.677Z,78.50
2019-03-30T02:23:30.231Z,78.50
2019-03-30T02:25:58.775Z,78.40
2019-03-30T02:28:27.353Z,78.40
2019-03-30T02:30:55.898Z,78.20
2019-03-30T02:33:24.464Z,79.00
2019-03-30T02:35:52.972Z,78.20
2019-03-30T02:38:21.509Z,78.10
2019-03-30T02:40:50.063Z,78.20
2019-03-30T02:43:18.647Z,78.10
2019-03-30T02:45:47.219Z,78.10
2019-03-30T02:48:15.747Z,78.00
2019-03-30T02:50:49.783Z,78.00
2019-03-30T02:53:14.509Z,78.00
2019-03-30T02:55:42.987Z,77.80
2019-03-30T02:58:11.551Z,77.80
2019-03-30T03:00:40.156Z,77.50
2019-03-30T03:03:09.579Z,77.70
2019-03-30T03:05:38.177Z,78.00
2019-03-30T03:08:06.728Z,78.00
2019-03-30T03:10:35.276Z,78.00
2019-03-30T03:13:03.917Z,78.00
2019-03-30T03:15:32.458Z,78.00
2019-03-30T03:18:01.006Z,78.00
2019-03-30T03:20:29.573Z,78.00
2019-03-30T03:22:58.121Z,77.90
2019-03-30T03:25:26.670Z,78.00
2019-03-30T03:27:55.568Z,77.80
2019-03-30T03:30:24.105Z,78.00
2019-03-30T03:32:52.649Z,78.00
2019-03-30T03:35:21.280Z,78.00
2019-03-30T03:37:49.819Z,78.00
2019-03-30T03:40:18.294Z,78.00
2019-03-30T03:42:46.900Z,78.70
2019-03-30T03:45:15.584Z,77.70
2019-03-30T03:47:44.131Z,77.60
2019-03-30T03:50:27.976Z,77.50
2019-03-30T03:52:55.698Z,77.40
2019-03-30T03:55:25.080Z,77.50
2019-03-30T03:57:54.190Z,77.60
2019-03-30T04:00:22.919Z,77.60
2019-03-30T04:02:53.524Z,77.60
2019-03-30T04:05:24.420Z,77.50
2019-03-30T04:07:56.371Z,77.60
2019-03-30T04:10:27.984Z,77.60
2019-03-30T04:12:59.666Z,78.30
2019-03-30T04:15:28.379Z,77.40
2019-03-30T04:17:56.933Z,77.50
2019-03-30T04:20:25.651Z,77.50
2019-03-30T04:22:54.871Z,77.40
2019-03-30T04:25:23.803Z,77.20
2019-03-30T04:27:52.370Z,77.20
2019-03-30T04:30:20.924Z,77.20
2019-03-30T04:32:49.465Z,77.00
2019-03-30T04:35:18.050Z,77.10
2019-03-30T04:37:46.600Z,76.90
2019-03-30T04:40:15.143Z,77.10
2019-03-30T04:42:43.734Z,76.90
2019-03-30T04:45:12.636Z,76.80
2019-03-30T04:47:41.214Z,76.90
2019-03-30T04:50:10.068Z,77.00
2019-03-30T04:52:38.605Z,76.60
2019-03-30T04:55:07.371Z,76.60
2019-03-30T04:57:36.286Z,76.80
2019-03-30T05:00:09.044Z,76.70
2019-03-30T05:02:37.660Z,76.60
2019-03-30T05:05:07.872Z,76.30
2019-03-30T05:07:36.437Z,76.30
2019-03-30T05:10:06.880Z,76.30
2019-03-30T05:12:35.525Z,76.10
2019-03-30T05:15:06.112Z,75.90
2019-03-30T05:17:46.701Z,75.80
2019-03-30T05:20:06.835Z,76.70
2019-03-30T05:22:35.575Z,75.60
2019-03-30T05:25:04.793Z,75.50
2019-03-30T05:27:33.370Z,75.50
2019-03-30T05:30:01.844Z,75.50
2019-03-30T05:32:30.400Z,75.40
2019-03-30T05:34:58.960Z,74.90
2019-03-30T05:37:27.515Z,74.80
2019-03-30T05:39:56.059Z,74.70
2019-03-30T05:42:24.638Z,74.70
2019-03-30T05:44:53.110Z,74.80
2019-03-30T05:47:21.712Z,74.70
2019-03-30T05:49:50.313Z,74.40
2019-03-30T05:52:26.328Z,74.30
2019-03-30T05:54:49.040Z,74.20
2019-03-30T05:57:17.554Z,73.70
2019-03-30T05:59:46.134Z,73.50
2019-03-30T06:02:14.675Z,73.40
2019-03-30T06:04:43.239Z,73.20
2019-03-30T06:07:11.724Z,73.10
2019-03-30T06:09:40.277Z,73.00
2019-03-30T06:12:08.858Z,72.80
2019-03-30T06:14:37.422Z,72.70
2019-03-30T06:17:05.983Z,72.40
2019-03-30T06:19:34.574Z,72.40
2019-03-30T06:22:03.123Z,72.30
2019-03-30T06:24:31.684Z,72.00
2019-03-30T06:27:00.275Z,71.40
2019-03-30T06:29:28.823Z,71.50
2019-03-30T06:31:57.378Z,71.50
2019-03-30T06:34:26.346Z,70.90
2019-03-30T06:36:54.902Z,70.90
2019-03-30T06:39:23.458Z,70.60
2019-03-30T06:41:52.040Z,70.70
2019-03-30T06:44:21.519Z,70.40
2019-03-30T06:46:50.077Z,70.80
2019-03-30T06:49:18.688Z,70.90
2019-03-30T06:51:47.161Z,70.80
2019-03-30T06:54:15.647Z,70.70
2019-03-30T06:56:44.234Z,70.40
2019-03-30T06:59:18.148Z,70.30
2019-03-30T07:01:47.327Z,70.40
2019-03-30T07:04:15.896Z,69.80
2019-03-30T07:06:44.984Z,69.30
2019-03-30T07:09:14.004Z,69.40
2019-03-30T07:11:44.911Z,69.50
2019-03-30T07:14:13.570Z,69.90
2019-03-30T07:16:42.282Z,69.60
2019-03-30T07:19:12.168Z,69.20
2019-03-30T07:21:47.138Z,68.90
2019-03-30T07:24:15.703Z,69.20
2019-03-30T07:26:44.255Z,68.90
2019-03-30T07:29:12.750Z,68.80
2019-03-30T07:31:41.264Z,69.10
2019-03-30T07:34:09.743Z,69.60
2019-03-30T07:36:38.229Z,69.80
2019-03-30T07:39:06.895Z,69.90
2019-03-30T07:41:35.431Z,69.50
2019-03-30T07:44:04.067Z,69.20
2019-03-30T07:46:32.685Z,69.10
2019-03-30T07:49:01.227Z,69.00
2019-03-30T07:51:33.162Z,69.20
2019-03-30T07:54:00.035Z,70.40
2019-03-30T07:56:28.574Z,69.50
2019-03-30T07:58:57.069Z,68.90
2019-03-30T08:01:25.963Z,68.60
2019-03-30T08:03:54.458Z,68.40
2019-03-30T08:06:23.078Z,68.80
2019-03-30T08:08:51.671Z,68.60
2019-03-30T08:11:20.296Z,68.80
2019-03-30T08:13:48.960Z,68.20
2019-03-30T08:16:17.532Z,68.10
2019-03-30T08:18:46.084Z,67.90
2019-03-30T08:21:14.656Z,67.70
2019-03-30T08:23:43.232Z,67.30
2019-03-30T08:26:11.783Z,66.90
2019-03-30T08:28:40.331Z,66.70
2019-03-30T08:31:08.936Z,66.80
2019-03-30T08:33:37.412Z,66.10
2019-03-30T08:36:06.037Z,66.20
2019-03-30T08:38:36.141Z,66.60
2019-03-30T08:41:04.693Z,65.90
2019-03-30T08:43:33.438Z,65.90
2019-03-30T08:46:02.040Z,66.20
2019-03-30T08:48:30.507Z,66.00
2019-03-30T08:50:59.124Z,65.20
2019-03-30T08:53:28.237Z,65.30
2019-03-30T08:55:56.804Z,65.00
2019-03-30T08:58:25.358Z,64.00
2019-03-30T09:00:53.947Z,63.40
2019-03-30T09:03:22.504Z,63.40
2019-03-30T09:05:51.043Z,63.70
2019-03-30T09:08:19.709Z,64.20
2019-03-30T09:10:48.255Z,63.90
2019-03-30T09:13:16.818Z,63.30
2019-03-30T09:15:46.956Z,63.00
2019-03-30T09:18:15.523Z,63.00
2019-03-30T09:20:44.064Z,62.60
2019-03-30T09:23:12.653Z,62.70
2019-03-30T09:25:41.266Z,62.30
2019-03-30T09:28:09.746Z,62.60
2019-03-30T09:30:38.394Z,62.40
2019-03-30T09:33:06.953Z,61.60
2019-03-30T09:35:35.504Z,62.20
2019-03-30T09:38:04.531Z,62.10
2019-03-30T09:40:33.089Z,61.80
2019-03-30T09:43:01.652Z,60.90
2019-03-30T09:45:30.319Z,61.00
2019-03-30T09:47:58.878Z,61.50
2019-03-30T09:50:27.436Z,61.20
2019-03-30T09:52:56.021Z,61.90
2019-03-30T09:55:27.184Z,62.30
2019-03-30T09:57:54.781Z,62.40
2019-03-30T10:00:23.370Z,61.80
2019-03-30T10:02:51.921Z,63.00
2019-03-30T10:05:20.484Z,62.50
2019-03-30T10:07:49.079Z,61.90
2019-03-30T10:10:17.633Z,61.50
2019-03-30T10:12:46.193Z,60.60
2019-03-30T10:15:15.222Z,61.00
2019-03-30T10:17:43.772Z,61.20
2019-03-30T10:20:13.074Z,61.90
2019-03-30T10:22:42.322Z,62.40
2019-03-30T10:25:11.443Z,62.80
2019-03-30T10:27:39.910Z,62.80
2019-03-30T10:30:09.940Z,63.90
2019-03-30T10:32:38.422Z,63.60
2019-03-30T10:35:07.446Z,63.70
2019-03-30T10:37:36.028Z,63.00
2019-03-30T10:40:09.210Z,62.40
2019-03-30T10:42:37.759Z,61.80
2019-03-30T10:45:08.521Z,61.50
2019-03-30T10:47:37.085Z,61.00
2019-03-30T10:50:09.568Z,60.60
2019-03-30T10:52:38.135Z,60.60
2019-03-30T10:55:07.529Z,59.80
2019-03-30T10:57:36.085Z,59.30
2019-03-30T11:00:07.177Z,59.40
2019-03-30T11:02:35.658Z,59.40
2019-03-30T11:05:06.048Z,59.10
2019-03-30T11:07:35.105Z,58.80
2019-03-30T11:10:05.871Z,58.40
2019-03-30T11:12:34.420Z,58.00
2019-03-30T11:15:03.622Z,57.50
2019-03-30T11:17:32.110Z,57.30
2019-03-30T11:20:00.669Z,56.60
2019-03-30T11:22:29.273Z,56.30
2019-03-30T11:25:07.179Z,56.30
2019-03-30T11:27:28.012Z,55.60
2019-03-30T11:29:56.600Z,54.30
2019-03-30T11:32:25.084Z,54.30
2019-03-30T11:34:53.650Z,54.60
2019-03-30T11:37:22.219Z,54.50
2019-03-30T11:39:50.699Z,53.90
2019-03-30T11:42:19.385Z,53.70
2019-03-30T11:44:47.986Z,52.10
2019-03-30T11:47:16.545Z,50.80
2019-03-30T11:49:45.131Z,49.60
2019-03-30T11:52:13.720Z,49.40
2019-03-30T11:54:42.263Z,47.80
2019-03-30T11:57:10.914Z,45.40
2019-03-30T11:59:39.513Z,44.70
2019-03-30T12:02:08.080Z,44.10
2019-03-30T12:04:36.624Z,44.00
2019-03-30T12:07:05.284Z,44.00
2019-03-30T12:09:33.844Z,41.90
2019-03-30T12:12:02.459Z,40.30
2019-03-30T12:14:31.062Z,39.10
2019-03-30T12:16:59.612Z,37.90
2019-03-30T12:19:28.170Z,38.30
2019-03-30T12:21:56.758Z,37.50
2019-03-30T12:24:25.354Z,38.30
2019-03-30T12:26:55.478Z,39.80
2019-03-30T12:29:24.093Z,41.60
2019-03-30T12:31:52.645Z,42.10
2019-03-30T12:34:21.206Z,40.90
2019-03-30T12:36:49.799Z,39.40
2019-03-30T12:39:18.290Z,40.00
2019-03-30T12:41:46.835Z,39.50
2019-03-30T12:44:15.431Z,39.50
2019-03-30T12:46:43.986Z,38.90
2019-03-30T12:49:12.548Z,38.60
2019-03-30T12:51:41.174Z,40.50
2019-03-30T12:54:09.732Z,41.50
2019-03-30T12:56:38.210Z,40.20
2019-03-30T12:59:06.787Z,39.90
2019-03-30T13:01:35.335Z,39.80
2019-03-30T13:04:04.195Z,40.70
2019-03-30T13:06:32.779Z,40.00
2019-03-30T13:09:01.329Z,40.00
2019-03-30T13:11:29.872Z,40.50
2019-03-30T13:13:58.685Z,41.30
2019-03-30T13:16:27.226Z,44.20
2019-03-30T13:18:55.783Z,43.70
2019-03-30T13:21:24.618Z,43.90
2019-03-30T13:23:53.169Z,44.50
2019-03-30T13:26:21.743Z,44.90
2019-03-30T13:28:50.319Z,44.70
2019-03-30T13:31:18.855Z,44.40
2019-03-30T13:33:47.329Z,43.60
2019-03-30T13:36:16.193Z,42.60
2019-03-30T13:38:44.745Z,41.90
2019-03-30T13:41:14.347Z,41.90
2019-03-30T13:43:43.197Z,42.00
2019-03-30T13:46:11.737Z,41.70
2019-03-30T13:48:40.293Z,42.40
2019-03-30T13:51:08.889Z,42.70
2019-03-30T13:53:37.440Z,43.90
2019-03-30T13:56:16.721Z,46.30
2019-03-30T13:58:36.623Z,46.10
2019-03-30T14:01:05.514Z,45.80
2019-03-30T14:03:34.049Z,45.70
2019-03-30T14:06:02.640Z,45.50
2019-03-30T14:08:31.175Z,46.40
2019-03-30T14:10:59.735Z,45.80
2019-03-30T14:13:28.337Z,45.70
2019-03-30T14:15:56.889Z,46.90
2019-03-30T14:18:25.459Z,46.10
2019-03-30T14:20:54.047Z,45.80
2019-03-30T14:23:22.609Z,46.40
2019-03-30T14:25:51.157Z,46.40
2019-03-30T14:28:20.236Z,46.90
2019-03-30T14:30:48.803Z,47.20
2019-03-30T14:33:17.351Z,46.80
2019-03-30T14:35:45.846Z,46.80
2019-03-30T14:38:14.388Z,47.80
2019-03-30T14:40:42.870Z,48.50
2019-03-30T14:43:12.130Z,48.10
2019-03-30T14:45:40.676Z,48.50
2019-03-30T14:48:09.240Z,47.90
2019-03-30T14:50:37.883Z,48.00
2019-03-30T14:53:06.384Z,48.60
2019-03-30T14:55:34.912Z,48.50
2019-03-30T14:58:03.596Z,49.70
2019-03-30T15:00:32.245Z,49.40
2019-03-30T15:03:01.009Z,48.70
2019-03-30T15:05:29.609Z,48.80
2019-03-30T15:07:59.031Z,48.50
2019-03-30T15:10:27.578Z,47.60
2019-03-30T15:12:56.182Z,48.00
2019-03-30T15:15:24.727Z,48.30
2019-03-30T15:17:53.280Z,48.90
2019-03-30T15:20:21.854Z,49.00
2019-03-30T15:22:50.452Z,49.70
2019-03-30T15:25:18.955Z,50.00
2019-03-30T15:27:47.602Z,50.00
2019-03-30T15:30:16.330Z,50.20
2019-03-30T15:32:44.942Z,50.30
2019-03-30T15:35:13.947Z,51.60
2019-03-30T15:37:42.503Z,52.20
2019-03-30T15:40:12.094Z,52.30
2019-03-30T15:42:40.833Z,52.00
2019-03-30T15:45:10.986Z,52.80
2019-03-30T15:47:39.906Z,53.20
2019-03-30T15:50:09.567Z,53.50
2019-03-30T15:52:38.109Z,54.00
2019-03-30T15:55:09.950Z,54.30
2019-03-30T15:57:38.516Z,54.30
2019-03-30T16:00:10.980Z,54.30
2019-03-30T16:02:39.603Z,54.50
2019-03-30T16:05:08.669Z,55.20
2019-03-30T16:07:37.222Z,55.70
2019-03-30T16:10:06.614Z,56.10
2019-03-30T16:12:35.199Z,56.30
2019-03-30T16:15:08.042Z,56.40
2019-03-30T16:17:36.594Z,56.70
2019-03-30T16:20:09.644Z,57.10
2019-03-30T16:22:39.736Z,57.70
2019-03-30T16:25:08.770Z,58.50
2019-03-30T16:27:39.238Z,58.40
2019-03-30T16:30:08.800Z,58.60
2019-03-30T16:32:37.356Z,59.00
2019-03-30T16:35:06.401Z,59.30
2019-03-30T16:37:34.957Z,60.00
2019-03-30T16:40:04.750Z,60.40
2019-03-30T16:42:33.330Z,61.20
2019-03-30T16:45:01.890Z,61.70
2019-03-30T16:47:30.522Z,62.20
2019-03-30T16:49:59.090Z,62.50
2019-03-30T16:52:27.648Z,63.00
2019-03-30T16:54:56.183Z,63.60
2019-03-30T16:57:24.700Z,63.90
2019-03-30T16:59:53.317Z,64.40
2019-03-30T17:02:21.901Z,64.60
2019-03-30T17:04:50.500Z,65.60
2019-03-30T17:07:19.056Z,65.80
2019-03-30T17:09:47.666Z,66.30
2019-03-30T17:12:16.238Z,66.80
2019-03-30T17:14:44.790Z,67.00
2019-03-30T17:17:13.334Z,67.30
2019-03-30T17:19:41.993Z,67.80
2019-03-30T17:22:10.544Z,68.00
2019-03-30T17:24:39.100Z,68.30
2019-03-30T17:27:09.191Z,68.30
2019-03-30T17:29:37.672Z,68.50
2019-03-30T17:32:06.294Z,68.70
2019-03-30T17:34:34.878Z,68.90
2019-03-30T17:37:03.517Z,69.00
2019-03-30T17:39:32.072Z,69.20
2019-03-30T17:42:01.044Z,69.40
2019-03-30T17:44:29.518Z,69.80
2019-03-30T17:46:58.291Z,69.90
2019-03-30T17:49:26.885Z,69.80
2019-03-30T17:51:55.432Z,70.10
2019-03-30T17:54:24.088Z,70.40
2019-03-30T17:56:52.600Z,70.40
2019-03-30T17:59:23.650Z,70.70
2019-03-30T18:01:51.485Z,71.00
2019-03-30T18:04:20.046Z,71.50
2019-03-30T18:06:48.598Z,71.20
2019-03-30T18:09:17.162Z,71.50
2019-03-30T18:11:45.756Z,71.80
2019-03-30T18:14:14.307Z,71.80
2019-03-30T18:16:42.779Z,72.00
2019-03-30T18:19:11.380Z,72.10
2019-03-30T18:21:39.929Z,72.30
2019-03-30T18:24:08.730Z,72.60
2019-03-30T18:26:37.328Z,72.80
2019-03-30T18:29:07.572Z,73.10
2019-03-30T18:31:36.358Z,73.20
2019-03-30T18:34:04.929Z,73.40
2019-03-30T18:36:35.428Z,73.60
2019-03-30T18:39:09.773Z,73.60
2019-03-30T18:41:36.546Z,73.50
2019-03-30T18:44:05.030Z,73.70
2019-03-30T18:46:33.599Z,73.90
2019-03-30T18:49:02.149Z,74.20
2019-03-30T18:51:30.694Z,74.40
2019-03-30T18:53:59.315Z,74.40
2019-03-30T18:56:29.271Z,74.30
2019-03-30T18:58:57.746Z,74.30
2019-03-30T19:01:26.328Z,74.20
2019-03-30T19:03:54.952Z,74.20
2019-03-30T19:06:23.566Z,74.30
2019-03-30T19:08:52.132Z,74.40
2019-03-30T19:11:20.906Z,74.90
2019-03-30T19:13:51.431Z,74.80
2019-03-30T19:16:19.647Z,74.80
2019-03-30T19:18:48.179Z,75.00
2019-03-30T19:21:16.880Z,75.10
2019-03-30T19:23:45.680Z,75.10
2019-03-30T19:26:14.363Z,75.40
2019-03-30T19:28:55.610Z,75.50
2019-03-30T19:31:13.521Z,75.50
2019-03-30T19:33:42.509Z,75.60
2019-03-30T19:36:11.012Z,75.70
2019-03-30T19:38:39.872Z,75.60
2019-03-30T19:41:08.867Z,75.50
2019-03-30T19:43:37.431Z,75.50
2019-03-30T19:46:06.450Z,75.50
2019-03-30T19:48:37.097Z,75.60
2019-03-30T19:51:06.033Z,75.70
2019-03-30T19:53:34.590Z,76.60
2019-03-30T19:56:03.954Z,75.80
2019-03-30T19:58:32.552Z,75.90
2019-03-30T20:01:01.303Z,75.90
2019-03-30T20:03:30.322Z,76.00
2019-03-30T20:05:59.322Z,76.10
2019-03-30T20:08:27.897Z,76.20
2019-03-30T20:10:56.606Z,76.00
2019-03-30T20:13:25.684Z,76.00
2019-03-30T20:15:54.679Z,76.00
2019-03-30T20:18:23.355Z,75.90
2019-03-30T20:20:52.040Z,75.90
2019-03-30T20:23:20.617Z,76.10
2019-03-30T20:25:49.214Z,76.20
2019-03-30T20:28:32.660Z,76.20
2019-03-30T20:31:01.277Z,76.30
2019-03-30T20:33:29.910Z,76.50
2019-03-30T20:35:58.484Z,76.70
2019-03-30T20:38:27.071Z,76.60
2019-03-30T20:40:55.655Z,76.80
2019-03-30T20:43:24.219Z,76.80
2019-03-30T20:45:53.186Z,76.80
2019-03-30T20:48:21.757Z,77.10
2019-03-30T20:50:50.331Z,77.40
2019-03-30T20:53:18.948Z,77.40
2019-03-30T20:55:47.511Z,77.50
2019-03-30T20:58:16.102Z,77.70
2019-03-30T21:00:44.971Z,77.70
2019-03-30T21:03:13.596Z,77.90
2019-03-30T21:05:42.163Z,78.00
2019-03-30T21:08:10.764Z,78.00
2019-03-30T21:10:39.339Z,78.40
2019-03-30T21:13:07.899Z,77.90
2019-03-30T21:15:36.518Z,78.00
2019-03-30T21:18:05.084Z,77.90
2019-03-30T21:20:33.726Z,78.10
2019-03-30T21:23:02.387Z,78.40
2019-03-30T21:25:30.993Z,78.50
2019-03-30T21:27:59.560Z,78.50
2019-03-30T21:30:28.158Z,78.90
2019-03-30T21:32:56.717Z,79.20
2019-03-30T21:35:25.294Z,79.50
2019-03-30T21:37:53.887Z,79.80
2019-03-30T21:40:22.465Z,80.00
2019-03-30T21:42:51.026Z,80.30
2019-03-30T21:45:19.695Z,80.40
2019-03-30T21:47:48.291Z,80.70
2019-03-30T21:50:18.330Z,80.90
2019-03-30T21:52:46.946Z,81.40
2019-03-30T21:55:15.516Z,81.60
2019-03-30T21:57:44.084Z,81.80
2019-03-30T22:00:14.292Z,81.90
2019-03-30T22:02:42.867Z,82.30
2019-03-30T22:05:13.043Z,82.10
2019-03-30T22:07:41.820Z,82.30
2019-03-30T22:10:13.466Z,82.30
2019-03-30T22:12:42.988Z,82.50
2019-03-30T22:15:13.600Z,82.50
2019-03-30T22:17:42.170Z,82.20
2019-03-30T22:20:10.883Z,82.10
2019-03-30T22:22:39.485Z,82.00
2019-03-30T22:25:08.130Z,82.10
2019-03-30T22:27:36.768Z,82.10
2019-03-30T22:30:23.610Z,82.30
2019-03-30T22:32:40.310Z,82.00
2019-03-30T22:35:09.151Z,82.00
2019-03-30T22:37:37.817Z,82.00
2019-03-30T22:40:08.331Z,81.90
2019-03-30T22:42:36.968Z,81.80
2019-03-30T22:45:06.611Z,81.80
2019-03-30T22:47:35.190Z,81.80
2019-03-30T22:50:05.957Z,81.50
2019-03-30T22:52:35.151Z,81.50
2019-03-30T22:55:04.812Z,81.80
2019-03-30T22:57:33.378Z,81.80
2019-03-30T23:00:01.976Z,81.90
2019-03-30T23:02:30.550Z,81.90
2019-03-30T23:04:59.115Z,82.10
2019-03-30T23:07:27.790Z,82.20
2019-03-30T23:09:56.435Z,82.30
2019-03-30T23:12:24.961Z,82.50
2019-03-30T23:14:53.574Z,82.50
2019-03-30T23:17:22.153Z,82.50
2019-03-30T23:19:52.001Z,82.70
2019-03-30T23:22:20.531Z,82.80
2019-03-30T23:24:49.212Z,82.80
2019-03-30T23:27:17.882Z,82.60
2019-03-30T23:29:46.453Z,82.70
2019-03-30T23:32:15.106Z,82.80
2019-03-30T23:34:45.273Z,82.80
2019-03-30T23:37:14.207Z,83.00
2019-03-30T23:39:42.949Z,83.10
2019-03-30T23:42:11.512Z,83.40
2019-03-30T23:44:40.122Z,83.50
2019-03-30T23:47:08.692Z,83.40
2019-03-30T23:49:37.357Z,83.30
2019-03-30T23:52:06.297Z,83.20
2019-03-30T23:54:34.863Z,83.30
2019-03-30T23:57:03.493Z,83.30
2019-03-30T23:59:32.101Z,83.30
